Terminal Aerodrome Forecast
Issued by NWS

Home | Current Version | Previous Version | Text Only | Print | Product List | Glossary On
Versions: 1 2 3 4 5 6 7 8 9 10 11 12 13 14 15 16
474
FTUS42 KTBW 302341
TAFRSW
TAF
KRSW 302341Z 0100/0124 13008KT P6SM FEW060 BKN250
     FM010200 10006KT P6SM SCT250
     FM011400 13010KT P6SM FEW025 SCT250
     FM012000 17008KT P6SM SCT050 SCT250=

USA.gov is the U.S. government's official web portal to all federal, state and local government web resources and services.